sensor_id;sensor_type;location;lat;lon;timestamp;P1;durP1;ratioP1;P2;durP2;ratioP2
19923;SDS011;10124;53.068;18.224;2022-12-18T00:00:02;124.23;;;56.87;;
19923;SDS011;10124;53.068;18.224;2022-12-18T00:02:59;122.20;;;55.33;;
19923;SDS011;10124;53.068;18.224;2022-12-18T00:05:27;110.63;;;53.87;;
19923;SDS011;10124;53.068;18.224;2022-12-18T00:07:55;102.83;;;51.87;;
19923;SDS011;10124;53.068;18.224;2022-12-18T00:10:24;118.67;;;54.47;;
19923;SDS011;10124;53.068;18.224;2022-12-18T00:12:51;137.73;;;64.17;;
19923;SDS011;10124;53.068;18.224;2022-12-18T00:15:20;130.83;;;59.47;;
19923;SDS011;10124;53.068;18.224;2022-12-18T00:17:47;142.77;;;63.53;;
19923;SDS011;10124;53.068;18.224;2022-12-18T00:20:16;148.50;;;62.90;;
19923;SDS011;10124;53.068;18.224;2022-12-18T00:22:48;130.93;;;60.17;;
19923;SDS011;10124;53.068;18.224;2022-12-18T00:25:16;102.60;;;49.63;;
19923;SDS011;10124;53.068;18.224;2022-12-18T00:27:44;117.30;;;52.47;;
19923;SDS011;10124;53.068;18.224;2022-12-18T00:30:13;104.07;;;50.33;;
19923;SDS011;10124;53.068;18.224;2022-12-18T00:32:41;117.03;;;52.33;;
19923;SDS011;10124;53.068;18.224;2022-12-18T00:35:09;116.90;;;52.97;;
19923;SDS011;10124;53.068;18.224;2022-12-18T00:37:37;101.40;;;50.20;;
19923;SDS011;10124;53.068;18.224;2022-12-18T00:40:05;113.90;;;51.47;;
19923;SDS011;10124;53.068;18.224;2022-12-18T00:42:33;105.33;;;51.10;;
19923;SDS011;10124;53.068;18.224;2022-12-18T00:45:20;98.67;;;50.97;;
19923;SDS011;10124;53.068;18.224;2022-12-18T00:47:51;102.33;;;47.67;;
19923;SDS011;10124;53.068;18.224;2022-12-18T00:50:19;101.40;;;48.43;;
19923;SDS011;10124;53.068;18.224;2022-12-18T00:52:47;97.27;;;45.57;;
19923;SDS011;10124;53.068;18.224;2022-12-18T00:55:15;106.57;;;48.33;;
19923;SDS011;10124;53.068;18.224;2022-12-18T00:57:46;104.93;;;49.17;;
19923;SDS011;10124;53.068;18.224;2022-12-18T01:00:14;96.77;;;44.07;;
19923;SDS011;10124;53.068;18.224;2022-12-18T01:02:43;103.83;;;48.17;;
19923;SDS011;10124;53.068;18.224;2022-12-18T01:05:11;99.70;;;48.47;;
19923;SDS011;10124;53.068;18.224;2022-12-18T01:07:40;96.23;;;47.27;;
19923;SDS011;10124;53.068;18.224;2022-12-18T01:10:09;96.37;;;45.67;;
19923;SDS011;10124;53.068;18.224;2022-12-18T01:12:37;98.13;;;47.03;;
19923;SDS011;10124;53.068;18.224;2022-12-18T01:15:06;105.00;;;49.33;;
19923;SDS011;10124;53.068;18.224;2022-12-18T01:17:34;96.73;;;47.43;;
19923;SDS011;10124;53.068;18.224;2022-12-18T01:20:02;95.17;;;45.93;;
19923;SDS011;10124;53.068;18.224;2022-12-18T01:22:32;101.07;;;49.17;;
19923;SDS011;10124;53.068;18.224;2022-12-18T01:25:00;101.17;;;47.77;;
19923;SDS011;10124;53.068;18.224;2022-12-18T01:27:28;101.10;;;46.70;;
19923;SDS011;10124;53.068;18.224;2022-12-18T01:29:56;96.67;;;45.83;;
19923;SDS011;10124;53.068;18.224;2022-12-18T01:32:25;103.07;;;47.37;;
19923;SDS011;10124;53.068;18.224;2022-12-18T01:34:53;95.10;;;46.60;;
19923;SDS011;10124;53.068;18.224;2022-12-18T01:37:21;88.90;;;45.77;;
19923;SDS011;10124;53.068;18.224;2022-12-18T01:39:49;99.13;;;45.10;;
19923;SDS011;10124;53.068;18.224;2022-12-18T01:42:19;92.37;;;44.17;;
19923;SDS011;10124;53.068;18.224;2022-12-18T01:45:01;96.40;;;45.30;;
19923;SDS011;10124;53.068;18.224;2022-12-18T01:50:15;88.87;;;43.23;;
19923;SDS011;10124;53.068;18.224;2022-12-18T01:52:47;94.77;;;45.80;;
19923;SDS011;10124;53.068;18.224;2022-12-18T01:55:18;91.70;;;42.47;;
19923;SDS011;10124;53.068;18.224;2022-12-18T01:57:46;91.70;;;41.43;;
19923;SDS011;10124;53.068;18.224;2022-12-18T02:00:17;85.43;;;42.83;;
19923;SDS011;10124;53.068;18.224;2022-12-18T02:02:46;83.47;;;41.67;;
19923;SDS011;10124;53.068;18.224;2022-12-18T02:05:16;97.93;;;43.80;;
19923;SDS011;10124;53.068;18.224;2022-12-18T02:10:27;86.60;;;41.43;;
19923;SDS011;10124;53.068;18.224;2022-12-18T02:18:32;84.23;;;40.90;;
19923;SDS011;10124;53.068;18.224;2022-12-18T02:23:36;86.43;;;41.00;;
19923;SDS011;10124;53.068;18.224;2022-12-18T02:26:16;81.57;;;37.77;;
19923;SDS011;10124;53.068;18.224;2022-12-18T02:29:08;84.27;;;41.03;;
19923;SDS011;10124;53.068;18.224;2022-12-18T02:31:42;85.27;;;39.50;;
19923;SDS011;10124;53.068;18.224;2022-12-18T02:34:11;86.67;;;40.90;;
19923;SDS011;10124;53.068;18.224;2022-12-18T02:36:42;81.00;;;38.70;;
19923;SDS011;10124;53.068;18.224;2022-12-18T02:39:12;78.67;;;39.17;;
19923;SDS011;10124;53.068;18.224;2022-12-18T02:41:54;91.50;;;42.93;;
19923;SDS011;10124;53.068;18.224;2022-12-18T02:44:23;85.57;;;40.60;;
19923;SDS011;10124;53.068;18.224;2022-12-18T02:46:53;88.67;;;44.47;;
19923;SDS011;10124;53.068;18.224;2022-12-18T02:54:57;84.87;;;39.63;;
19923;SDS011;10124;53.068;18.224;2022-12-18T03:00:08;80.93;;;40.50;;
19923;SDS011;10124;53.068;18.224;2022-12-18T03:03:00;70.27;;;38.43;;
19923;SDS011;10124;53.068;18.224;2022-12-18T03:05:30;71.93;;;37.73;;
19923;SDS011;10124;53.068;18.224;2022-12-18T03:08:03;77.90;;;39.33;;
19923;SDS011;10124;53.068;18.224;2022-12-18T03:10:38;72.57;;;36.70;;
19923;SDS011;10124;53.068;18.224;2022-12-18T03:13:13;73.40;;;35.70;;
19923;SDS011;10124;53.068;18.224;2022-12-18T03:15:49;65.60;;;34.60;;
19923;SDS011;10124;53.068;18.224;2022-12-18T03:18:23;68.53;;;36.20;;
19923;SDS011;10124;53.068;18.224;2022-12-18T03:20:51;61.27;;;33.83;;
19923;SDS011;10124;53.068;18.224;2022-12-18T03:23:23;70.20;;;35.57;;
19923;SDS011;10124;53.068;18.224;2022-12-18T03:25:53;69.23;;;36.40;;
19923;SDS011;10124;53.068;18.224;2022-12-18T03:28:24;72.60;;;38.67;;
19923;SDS011;10124;53.068;18.224;2022-12-18T03:30:58;72.67;;;38.83;;
19923;SDS011;10124;53.068;18.224;2022-12-18T03:33:31;75.77;;;38.70;;
19923;SDS011;10124;53.068;18.224;2022-12-18T03:36:03;75.63;;;37.60;;
19923;SDS011;10124;53.068;18.224;2022-12-18T03:38:32;83.63;;;39.83;;
19923;SDS011;10124;53.068;18.224;2022-12-18T03:46:26;70.27;;;35.17;;
19923;SDS011;10124;53.068;18.224;2022-12-18T03:48:58;68.87;;;36.80;;
19923;SDS011;10124;53.068;18.224;2022-12-18T03:54:04;68.37;;;36.17;;
19923;SDS011;10124;53.068;18.224;2022-12-18T03:56:45;70.93;;;36.47;;
19923;SDS011;10124;53.068;18.224;2022-12-18T03:59:15;76.10;;;41.17;;
19923;SDS011;10124;53.068;18.224;2022-12-18T04:01:46;68.33;;;36.47;;
19923;SDS011;10124;53.068;18.224;2022-12-18T04:04:17;109.00;;;54.00;;
19923;SDS011;10124;53.068;18.224;2022-12-18T04:06:46;81.47;;;39.90;;
19923;SDS011;10124;53.068;18.224;2022-12-18T04:09:17;73.97;;;37.20;;
19923;SDS011;10124;53.068;18.224;2022-12-18T04:11:47;74.87;;;37.13;;
19923;SDS011;10124;53.068;18.224;2022-12-18T04:14:16;73.47;;;37.87;;
19923;SDS011;10124;53.068;18.224;2022-12-18T04:16:48;79.90;;;38.90;;
19923;SDS011;10124;53.068;18.224;2022-12-18T04:19:21;73.83;;;38.43;;
19923;SDS011;10124;53.068;18.224;2022-12-18T04:21:51;74.50;;;36.90;;
19923;SDS011;10124;53.068;18.224;2022-12-18T04:24:19;74.63;;;38.13;;
19923;SDS011;10124;53.068;18.224;2022-12-18T04:27:03;72.63;;;36.57;;
19923;SDS011;10124;53.068;18.224;2022-12-18T04:29:38;74.73;;;37.67;;
19923;SDS011;10124;53.068;18.224;2022-12-18T04:32:07;76.90;;;40.03;;
19923;SDS011;10124;53.068;18.224;2022-12-18T04:34:36;70.67;;;36.40;;
19923;SDS011;10124;53.068;18.224;2022-12-18T04:37:04;71.00;;;38.13;;
19923;SDS011;10124;53.068;18.224;2022-12-18T04:39:32;73.87;;;37.37;;
19923;SDS011;10124;53.068;18.224;2022-12-18T04:42:05;82.50;;;39.67;;
19923;SDS011;10124;53.068;18.224;2022-12-18T04:44:33;76.93;;;38.03;;
19923;SDS011;10124;53.068;18.224;2022-12-18T04:47:01;72.73;;;35.90;;
19923;SDS011;10124;53.068;18.224;2022-12-18T04:49:29;68.23;;;35.90;;
19923;SDS011;10124;53.068;18.224;2022-12-18T04:51:57;72.97;;;35.97;;
19923;SDS011;10124;53.068;18.224;2022-12-18T04:54:25;84.50;;;42.40;;
19923;SDS011;10124;53.068;18.224;2022-12-18T04:56:53;90.13;;;45.27;;
19923;SDS011;10124;53.068;18.224;2022-12-18T04:59:21;89.33;;;44.40;;
19923;SDS011;10124;53.068;18.224;2022-12-18T05:01:49;79.97;;;40.47;;
19923;SDS011;10124;53.068;18.224;2022-12-18T05:04:17;75.60;;;36.23;;
19923;SDS011;10124;53.068;18.224;2022-12-18T05:06:45;76.10;;;38.47;;
19923;SDS011;10124;53.068;18.224;2022-12-18T05:09:14;78.70;;;38.43;;
19923;SDS011;10124;53.068;18.224;2022-12-18T05:11:42;76.77;;;37.87;;
19923;SDS011;10124;53.068;18.224;2022-12-18T05:14:12;76.20;;;38.37;;
19923;SDS011;10124;53.068;18.224;2022-12-18T05:16:40;75.83;;;37.43;;
19923;SDS011;10124;53.068;18.224;2022-12-18T05:19:08;71.83;;;36.93;;
19923;SDS011;10124;53.068;18.224;2022-12-18T05:21:37;81.40;;;37.50;;
19923;SDS011;10124;53.068;18.224;2022-12-18T05:24:05;80.03;;;36.17;;
19923;SDS011;10124;53.068;18.224;2022-12-18T05:26:33;71.93;;;34.93;;
19923;SDS011;10124;53.068;18.224;2022-12-18T05:29:01;81.00;;;38.27;;
19923;SDS011;10124;53.068;18.224;2022-12-18T05:31:29;73.30;;;36.07;;
19923;SDS011;10124;53.068;18.224;2022-12-18T05:34:05;76.80;;;35.93;;
19923;SDS011;10124;53.068;18.224;2022-12-18T05:36:32;72.43;;;36.23;;
19923;SDS011;10124;53.068;18.224;2022-12-18T05:39:00;75.93;;;36.43;;
19923;SDS011;10124;53.068;18.224;2022-12-18T05:41:28;70.10;;;35.77;;
19923;SDS011;10124;53.068;18.224;2022-12-18T05:43:56;74.17;;;35.90;;
19923;SDS011;10124;53.068;18.224;2022-12-18T05:46:25;70.43;;;35.77;;
19923;SDS011;10124;53.068;18.224;2022-12-18T05:48:53;73.73;;;36.87;;
19923;SDS011;10124;53.068;18.224;2022-12-18T05:51:21;78.60;;;38.70;;
19923;SDS011;10124;53.068;18.224;2022-12-18T05:53:50;71.13;;;34.80;;
19923;SDS011;10124;53.068;18.224;2022-12-18T05:56:18;66.33;;;35.37;;
19923;SDS011;10124;53.068;18.224;2022-12-18T05:58:47;68.10;;;34.57;;
19923;SDS011;10124;53.068;18.224;2022-12-18T06:01:16;74.97;;;35.33;;
19923;SDS011;10124;53.068;18.224;2022-12-18T06:03:45;77.63;;;36.60;;
19923;SDS011;10124;53.068;18.224;2022-12-18T06:06:18;113.83;;;52.80;;
19923;SDS011;10124;53.068;18.224;2022-12-18T06:08:46;77.10;;;38.73;;
19923;SDS011;10124;53.068;18.224;2022-12-18T06:11:16;86.23;;;41.07;;
19923;SDS011;10124;53.068;18.224;2022-12-18T06:13:45;80.80;;;38.63;;
19923;SDS011;10124;53.068;18.224;2022-12-18T06:16:13;78.23;;;38.80;;
19923;SDS011;10124;53.068;18.224;2022-12-18T06:18:41;85.63;;;36.87;;
19923;SDS011;10124;53.068;18.224;2022-12-18T06:21:09;80.17;;;37.53;;
19923;SDS011;10124;53.068;18.224;2022-12-18T06:23:37;64.80;;;33.47;;
19923;SDS011;10124;53.068;18.224;2022-12-18T06:26:06;68.97;;;34.47;;
19923;SDS011;10124;53.068;18.224;2022-12-18T06:28:35;70.73;;;35.23;;
19923;SDS011;10124;53.068;18.224;2022-12-18T06:31:03;74.23;;;37.00;;
19923;SDS011;10124;53.068;18.224;2022-12-18T06:33:32;70.70;;;34.73;;
19923;SDS011;10124;53.068;18.224;2022-12-18T06:36:04;67.90;;;35.87;;
19923;SDS011;10124;53.068;18.224;2022-12-18T06:38:37;72.97;;;36.00;;
19923;SDS011;10124;53.068;18.224;2022-12-18T06:41:07;70.63;;;34.63;;
19923;SDS011;10124;53.068;18.224;2022-12-18T06:43:35;69.03;;;34.83;;
19923;SDS011;10124;53.068;18.224;2022-12-18T06:46:04;76.47;;;35.83;;
19923;SDS011;10124;53.068;18.224;2022-12-18T06:48:33;76.03;;;36.63;;
19923;SDS011;10124;53.068;18.224;2022-12-18T06:51:01;68.27;;;35.60;;
19923;SDS011;10124;53.068;18.224;2022-12-18T06:53:29;71.83;;;35.17;;
19923;SDS011;10124;53.068;18.224;2022-12-18T06:56:04;76.87;;;36.87;;
19923;SDS011;10124;53.068;18.224;2022-12-18T06:58:37;80.37;;;38.63;;
19923;SDS011;10124;53.068;18.224;2022-12-18T07:01:07;76.00;;;38.17;;
19923;SDS011;10124;53.068;18.224;2022-12-18T07:03:37;83.47;;;40.90;;
19923;SDS011;10124;53.068;18.224;2022-12-18T07:06:13;91.17;;;40.53;;
19923;SDS011;10124;53.068;18.224;2022-12-18T07:08:42;88.73;;;40.90;;
19923;SDS011;10124;53.068;18.224;2022-12-18T07:11:10;97.80;;;44.20;;
19923;SDS011;10124;53.068;18.224;2022-12-18T07:13:38;88.80;;;45.07;;
19923;SDS011;10124;53.068;18.224;2022-12-18T07:16:08;87.30;;;43.87;;
19923;SDS011;10124;53.068;18.224;2022-12-18T07:18:48;86.77;;;42.83;;
19923;SDS011;10124;53.068;18.224;2022-12-18T07:21:17;95.90;;;45.53;;
19923;SDS011;10124;53.068;18.224;2022-12-18T07:23:45;93.17;;;46.00;;
19923;SDS011;10124;53.068;18.224;2022-12-18T07:26:16;105.63;;;46.33;;
19923;SDS011;10124;53.068;18.224;2022-12-18T07:28:44;110.87;;;50.10;;
19923;SDS011;10124;53.068;18.224;2022-12-18T07:31:15;104.97;;;47.47;;
19923;SDS011;10124;53.068;18.224;2022-12-18T07:33:44;106.13;;;49.47;;
19923;SDS011;10124;53.068;18.224;2022-12-18T07:36:13;98.67;;;46.93;;
19923;SDS011;10124;53.068;18.224;2022-12-18T07:38:42;103.23;;;47.87;;
19923;SDS011;10124;53.068;18.224;2022-12-18T07:41:11;103.47;;;46.57;;
19923;SDS011;10124;53.068;18.224;2022-12-18T07:43:40;105.57;;;47.70;;
19923;SDS011;10124;53.068;18.224;2022-12-18T07:46:09;102.37;;;46.00;;
19923;SDS011;10124;53.068;18.224;2022-12-18T07:48:40;97.97;;;46.03;;
19923;SDS011;10124;53.068;18.224;2022-12-18T07:51:09;102.80;;;45.00;;
19923;SDS011;10124;53.068;18.224;2022-12-18T07:53:37;104.80;;;46.07;;
19923;SDS011;10124;53.068;18.224;2022-12-18T07:56:09;97.07;;;43.53;;
19923;SDS011;10124;53.068;18.224;2022-12-18T07:58:58;87.90;;;42.23;;
19923;SDS011;10124;53.068;18.224;2022-12-18T08:01:30;96.27;;;44.10;;
19923;SDS011;10124;53.068;18.224;2022-12-18T08:03:58;88.23;;;42.07;;
19923;SDS011;10124;53.068;18.224;2022-12-18T08:06:26;91.13;;;42.77;;
19923;SDS011;10124;53.068;18.224;2022-12-18T08:08:55;89.80;;;42.77;;
19923;SDS011;10124;53.068;18.224;2022-12-18T08:11:24;90.67;;;42.20;;
19923;SDS011;10124;53.068;18.224;2022-12-18T08:13:53;92.30;;;41.97;;
19923;SDS011;10124;53.068;18.224;2022-12-18T08:16:22;85.50;;;38.90;;
19923;SDS011;10124;53.068;18.224;2022-12-18T08:18:52;80.57;;;39.73;;
19923;SDS011;10124;53.068;18.224;2022-12-18T08:21:21;79.33;;;38.13;;
19923;SDS011;10124;53.068;18.224;2022-12-18T08:23:50;79.50;;;38.80;;
19923;SDS011;10124;53.068;18.224;2022-12-18T08:26:19;77.97;;;38.50;;
19923;SDS011;10124;53.068;18.224;2022-12-18T08:28:49;72.03;;;37.10;;
19923;SDS011;10124;53.068;18.224;2022-12-18T08:31:17;78.07;;;38.83;;
19923;SDS011;10124;53.068;18.224;2022-12-18T08:33:50;78.13;;;39.30;;
19923;SDS011;10124;53.068;18.224;2022-12-18T08:36:20;77.33;;;38.03;;
19923;SDS011;10124;53.068;18.224;2022-12-18T08:38:49;74.00;;;38.77;;
19923;SDS011;10124;53.068;18.224;2022-12-18T08:41:17;71.13;;;36.23;;
19923;SDS011;10124;53.068;18.224;2022-12-18T08:43:47;71.00;;;36.23;;
19923;SDS011;10124;53.068;18.224;2022-12-18T08:46:34;64.70;;;34.37;;
19923;SDS011;10124;53.068;18.224;2022-12-18T08:49:04;65.13;;;33.27;;
19923;SDS011;10124;53.068;18.224;2022-12-18T08:51:32;63.07;;;33.07;;
19923;SDS011;10124;53.068;18.224;2022-12-18T08:54:02;61.03;;;33.83;;
19923;SDS011;10124;53.068;18.224;2022-12-18T08:56:32;62.37;;;33.40;;
19923;SDS011;10124;53.068;18.224;2022-12-18T08:59:02;81.67;;;33.93;;
19923;SDS011;10124;53.068;18.224;2022-12-18T09:01:31;60.70;;;31.60;;
19923;SDS011;10124;53.068;18.224;2022-12-18T09:04:02;55.90;;;30.70;;
19923;SDS011;10124;53.068;18.224;2022-12-18T09:06:33;58.60;;;31.30;;
19923;SDS011;10124;53.068;18.224;2022-12-18T09:09:08;59.33;;;31.33;;
19923;SDS011;10124;53.068;18.224;2022-12-18T09:11:37;65.87;;;35.17;;
19923;SDS011;10124;53.068;18.224;2022-12-18T09:14:05;68.20;;;33.80;;
19923;SDS011;10124;53.068;18.224;2022-12-18T09:16:34;74.30;;;39.57;;
19923;SDS011;10124;53.068;18.224;2022-12-18T09:19:10;59.63;;;33.10;;
19923;SDS011;10124;53.068;18.224;2022-12-18T09:21:39;61.17;;;33.23;;
19923;SDS011;10124;53.068;18.224;2022-12-18T09:24:15;55.83;;;31.20;;
19923;SDS011;10124;53.068;18.224;2022-12-18T09:26:43;77.90;;;36.83;;
19923;SDS011;10124;53.068;18.224;2022-12-18T09:29:14;70.07;;;34.13;;
19923;SDS011;10124;53.068;18.224;2022-12-18T09:31:45;69.33;;;36.87;;
19923;SDS011;10124;53.068;18.224;2022-12-18T09:34:13;63.80;;;32.80;;
19923;SDS011;10124;53.068;18.224;2022-12-18T09:36:42;74.47;;;33.60;;
19923;SDS011;10124;53.068;18.224;2022-12-18T09:39:10;54.97;;;30.57;;
19923;SDS011;10124;53.068;18.224;2022-12-18T09:46:52;70.20;;;37.73;;
19923;SDS011;10124;53.068;18.224;2022-12-18T09:49:29;57.37;;;29.80;;
19923;SDS011;10124;53.068;18.224;2022-12-18T09:52:11;57.00;;;31.47;;
19923;SDS011;10124;53.068;18.224;2022-12-18T09:55:03;83.10;;;31.20;;
19923;SDS011;10124;53.068;18.224;2022-12-18T09:57:45;68.47;;;31.20;;
19923;SDS011;10124;53.068;18.224;2022-12-18T10:02:44;72.83;;;33.80;;
19923;SDS011;10124;53.068;18.224;2022-12-18T10:05:13;73.23;;;36.63;;
19923;SDS011;10124;53.068;18.224;2022-12-18T10:07:49;64.70;;;33.27;;
19923;SDS011;10124;53.068;18.224;2022-12-18T10:10:46;62.30;;;32.10;;
19923;SDS011;10124;53.068;18.224;2022-12-18T10:13:37;67.83;;;33.93;;
19923;SDS011;10124;53.068;18.224;2022-12-18T10:16:17;67.07;;;34.33;;
19923;SDS011;10124;53.068;18.224;2022-12-18T10:21:28;78.93;;;36.80;;
19923;SDS011;10124;53.068;18.224;2022-12-18T10:24:59;71.77;;;35.37;;
19923;SDS011;10124;53.068;18.224;2022-12-18T10:27:24;67.43;;;33.80;;
19923;SDS011;10124;53.068;18.224;2022-12-18T10:29:54;71.17;;;35.30;;
19923;SDS011;10124;53.068;18.224;2022-12-18T10:32:26;76.77;;;34.77;;
19923;SDS011;10124;53.068;18.224;2022-12-18T10:34:56;62.90;;;34.10;;
19923;SDS011;10124;53.068;18.224;2022-12-18T10:37:28;63.90;;;30.80;;
19923;SDS011;10124;53.068;18.224;2022-12-18T10:40:12;68.67;;;33.83;;
19923;SDS011;10124;53.068;18.224;2022-12-18T10:43:03;73.10;;;33.73;;
19923;SDS011;10124;53.068;18.224;2022-12-18T10:45:41;64.17;;;31.97;;
19923;SDS011;10124;53.068;18.224;2022-12-18T10:48:19;65.33;;;33.33;;
19923;SDS011;10124;53.068;18.224;2022-12-18T10:50:49;69.60;;;36.07;;
19923;SDS011;10124;53.068;18.224;2022-12-18T10:53:39;79.07;;;35.63;;
19923;SDS011;10124;53.068;18.224;2022-12-18T10:56:07;76.80;;;36.10;;
19923;SDS011;10124;53.068;18.224;2022-12-18T10:58:35;68.47;;;34.63;;
19923;SDS011;10124;53.068;18.224;2022-12-18T11:03:42;71.63;;;36.77;;
19923;SDS011;10124;53.068;18.224;2022-12-18T11:06:15;70.57;;;36.27;;
19923;SDS011;10124;53.068;18.224;2022-12-18T11:09:02;77.27;;;36.37;;
19923;SDS011;10124;53.068;18.224;2022-12-18T11:11:40;81.00;;;39.47;;
19923;SDS011;10124;53.068;18.224;2022-12-18T11:14:13;95.27;;;42.47;;
19923;SDS011;10124;53.068;18.224;2022-12-18T11:16:46;79.57;;;38.97;;
19923;SDS011;10124;53.068;18.224;2022-12-18T11:19:36;79.43;;;39.13;;
19923;SDS011;10124;53.068;18.224;2022-12-18T11:22:21;85.27;;;43.43;;
19923;SDS011;10124;53.068;18.224;2022-12-18T11:24:54;82.47;;;41.80;;
19923;SDS011;10124;53.068;18.224;2022-12-18T11:27:47;93.50;;;44.53;;
19923;SDS011;10124;53.068;18.224;2022-12-18T11:30:25;96.07;;;43.57;;
19923;SDS011;10124;53.068;18.224;2022-12-18T11:32:54;97.90;;;43.57;;
19923;SDS011;10124;53.068;18.224;2022-12-18T11:35:30;100.43;;;45.10;;
19923;SDS011;10124;53.068;18.224;2022-12-18T11:38:19;117.03;;;47.97;;
19923;SDS011;10124;53.068;18.224;2022-12-18T11:40:57;99.17;;;45.50;;
19923;SDS011;10124;53.068;18.224;2022-12-18T11:44:08;102.40;;;46.10;;
19923;SDS011;10124;53.068;18.224;2022-12-18T11:46:38;88.63;;;44.90;;
19923;SDS011;10124;53.068;18.224;2022-12-18T11:49:28;93.90;;;44.50;;
19923;SDS011;10124;53.068;18.224;2022-12-18T11:55:11;86.40;;;42.33;;
19923;SDS011;10124;53.068;18.224;2022-12-18T12:00:20;87.67;;;43.20;;
19923;SDS011;10124;53.068;18.224;2022-12-18T12:08:49;89.43;;;42.53;;
19923;SDS011;10124;53.068;18.224;2022-12-18T12:14:37;107.83;;;45.97;;
19923;SDS011;10124;53.068;18.224;2022-12-18T12:17:20;130.87;;;48.57;;
19923;SDS011;10124;53.068;18.224;2022-12-18T12:22:46;102.40;;;46.73;;
19923;SDS011;10124;53.068;18.224;2022-12-18T12:25:21;90.37;;;40.43;;
19923;SDS011;10124;53.068;18.224;2022-12-18T12:30:41;116.83;;;45.37;;
19923;SDS011;10124;53.068;18.224;2022-12-18T12:33:48;87.83;;;41.73;;
19923;SDS011;10124;53.068;18.224;2022-12-18T12:36:25;88.80;;;43.87;;
19923;SDS011;10124;53.068;18.224;2022-12-18T12:38:57;95.23;;;45.20;;
19923;SDS011;10124;53.068;18.224;2022-12-18T12:41:31;93.77;;;44.80;;
19923;SDS011;10124;53.068;18.224;2022-12-18T12:44:24;113.67;;;45.90;;
19923;SDS011;10124;53.068;18.224;2022-12-18T12:46:56;97.53;;;45.47;;
19923;SDS011;10124;53.068;18.224;2022-12-18T12:49:31;100.67;;;46.80;;
19923;SDS011;10124;53.068;18.224;2022-12-18T12:52:44;111.30;;;49.07;;
19923;SDS011;10124;53.068;18.224;2022-12-18T12:55:07;100.67;;;47.13;;
19923;SDS011;10124;53.068;18.224;2022-12-18T12:57:45;103.67;;;49.10;;
19923;SDS011;10124;53.068;18.224;2022-12-18T13:00:16;114.27;;;48.63;;
19923;SDS011;10124;53.068;18.224;2022-12-18T13:05:58;100.27;;;47.17;;
19923;SDS011;10124;53.068;18.224;2022-12-18T13:08:32;90.20;;;46.17;;
19923;SDS011;10124;53.068;18.224;2022-12-18T13:11:31;101.97;;;47.77;;
19923;SDS011;10124;53.068;18.224;2022-12-18T13:14:38;96.33;;;46.70;;
19923;SDS011;10124;53.068;18.224;2022-12-18T13:19:51;107.53;;;50.27;;
19923;SDS011;10124;53.068;18.224;2022-12-18T13:22:46;106.77;;;51.17;;
19923;SDS011;10124;53.068;18.224;2022-12-18T13:25:26;113.80;;;52.30;;
19923;SDS011;10124;53.068;18.224;2022-12-18T13:41:00;139.73;;;70.40;;
19923;SDS011;10124;53.068;18.224;2022-12-18T13:43:30;124.53;;;59.07;;
19923;SDS011;10124;53.068;18.224;2022-12-18T13:48:27;120.13;;;53.43;;
19923;SDS011;10124;53.068;18.224;2022-12-18T13:53:30;113.23;;;51.00;;
19923;SDS011;10124;53.068;18.224;2022-12-18T13:56:03;129.80;;;53.87;;
19923;SDS011;10124;53.068;18.224;2022-12-18T13:58:32;123.33;;;56.00;;
19923;SDS011;10124;53.068;18.224;2022-12-18T14:01:01;124.87;;;54.33;;
19923;SDS011;10124;53.068;18.224;2022-12-18T14:03:31;130.13;;;56.33;;
19923;SDS011;10124;53.068;18.224;2022-12-18T14:06:01;140.40;;;57.23;;
19923;SDS011;10124;53.068;18.224;2022-12-18T14:08:33;135.60;;;58.53;;
19923;SDS011;10124;53.068;18.224;2022-12-18T14:11:07;130.73;;;54.97;;
19923;SDS011;10124;53.068;18.224;2022-12-18T14:13:47;138.17;;;56.50;;
19923;SDS011;10124;53.068;18.224;2022-12-18T14:16:17;126.60;;;55.80;;
19923;SDS011;10124;53.068;18.224;2022-12-18T14:18:52;111.27;;;50.47;;
19923;SDS011;10124;53.068;18.224;2022-12-18T14:21:35;131.03;;;53.67;;
19923;SDS011;10124;53.068;18.224;2022-12-18T14:26:36;159.73;;;59.37;;
19923;SDS011;10124;53.068;18.224;2022-12-18T14:29:23;151.10;;;57.90;;
19923;SDS011;10124;53.068;18.224;2022-12-18T14:34:37;133.83;;;55.10;;
19923;SDS011;10124;53.068;18.224;2022-12-18T14:37:07;111.03;;;51.67;;
19923;SDS011;10124;53.068;18.224;2022-12-18T14:39:37;131.00;;;58.00;;
19923;SDS011;10124;53.068;18.224;2022-12-18T14:42:09;130.47;;;53.83;;
19923;SDS011;10124;53.068;18.224;2022-12-18T14:44:38;133.53;;;54.73;;
19923;SDS011;10124;53.068;18.224;2022-12-18T14:47:26;124.03;;;55.27;;
19923;SDS011;10124;53.068;18.224;2022-12-18T14:49:54;131.20;;;58.57;;
19923;SDS011;10124;53.068;18.224;2022-12-18T14:52:25;129.37;;;57.03;;
19923;SDS011;10124;53.068;18.224;2022-12-18T14:54:56;139.23;;;59.43;;
19923;SDS011;10124;53.068;18.224;2022-12-18T14:57:25;139.93;;;58.27;;
19923;SDS011;10124;53.068;18.224;2022-12-18T15:00:06;203.47;;;61.30;;
19923;SDS011;10124;53.068;18.224;2022-12-18T15:02:42;142.90;;;60.13;;
19923;SDS011;10124;53.068;18.224;2022-12-18T15:07:50;136.10;;;59.17;;
19923;SDS011;10124;53.068;18.224;2022-12-18T15:12:48;151.57;;;62.50;;
19923;SDS011;10124;53.068;18.224;2022-12-18T15:20:39;155.77;;;63.33;;
19923;SDS011;10124;53.068;18.224;2022-12-18T15:25:57;156.07;;;66.00;;
19923;SDS011;10124;53.068;18.224;2022-12-18T15:36:19;160.33;;;62.20;;
19923;SDS011;10124;53.068;18.224;2022-12-18T15:38:56;154.97;;;69.53;;
19923;SDS011;10124;53.068;18.224;2022-12-18T15:41:32;150.57;;;64.30;;
19923;SDS011;10124;53.068;18.224;2022-12-18T15:44:02;155.67;;;64.70;;
19923;SDS011;10124;53.068;18.224;2022-12-18T15:46:31;145.13;;;63.70;;
19923;SDS011;10124;53.068;18.224;2022-12-18T15:48:59;144.67;;;61.13;;
19923;SDS011;10124;53.068;18.224;2022-12-18T15:51:35;144.90;;;58.70;;
19923;SDS011;10124;53.068;18.224;2022-12-18T15:54:05;135.07;;;59.57;;
19923;SDS011;10124;53.068;18.224;2022-12-18T15:56:36;132.67;;;57.63;;
19923;SDS011;10124;53.068;18.224;2022-12-18T15:59:23;178.00;;;63.20;;
19923;SDS011;10124;53.068;18.224;2022-12-18T16:01:51;152.87;;;62.83;;
19923;SDS011;10124;53.068;18.224;2022-12-18T16:04:23;153.67;;;64.63;;
19923;SDS011;10124;53.068;18.224;2022-12-18T16:06:51;161.23;;;68.33;;
19923;SDS011;10124;53.068;18.224;2022-12-18T16:09:40;186.33;;;72.63;;
19923;SDS011;10124;53.068;18.224;2022-12-18T16:12:18;185.33;;;74.33;;
19923;SDS011;10124;53.068;18.224;2022-12-18T16:14:49;191.17;;;77.03;;
19923;SDS011;10124;53.068;18.224;2022-12-18T16:17:17;219.27;;;83.10;;
19923;SDS011;10124;53.068;18.224;2022-12-18T16:19:45;192.73;;;75.67;;
19923;SDS011;10124;53.068;18.224;2022-12-18T16:22:23;186.50;;;75.17;;
19923;SDS011;10124;53.068;18.224;2022-12-18T16:24:54;197.90;;;78.07;;
19923;SDS011;10124;53.068;18.224;2022-12-18T16:27:22;218.07;;;81.50;;